Fivelborg — PCEL — position and weather

sailwx.info

Track history (hours):
 
Tides and Currents Weather Stations Pressure Air Temp Water Temp Dewpoint Dewpoint Depression Visibility Wind Speed Wind Dir Waves Ship Positions

Fivelborg

Last reported at 2017-Oct-09 08:21 UTC. Time now 2017-Oct-19 18:20 UTC.
Position N 45°34' W 073°31'.
Warning: this ship's position is 10 days out of date.

Length 154 m; draft 8 m.

Type: Cargo ship. MMSI: 245466000.

Date/timePositionNaut miles runAvg speedWind from/ knotsBaromVisibWave heightAir tempDewpointWater temp
2017-Oct-09 08:21N 45°34' W 073°31'3 6.4
2017-Oct-09 07:57N 45°32' W 073°32'2 1.8
2017-Oct-09 06:41N 45°30' W 073°31'1 2.7
2017-Oct-09 06:27N 45°29' W 073°31'3 5.8
2017-Oct-09 06:01N 45°26' W 073°30'3 5.8
2017-Oct-09 05:29N 45°24' W 073°33'0 1.0
2017-Oct-09 05:00N 45°24' W 073°34'1 2.0
2017-Oct-09 04:30N 45°24' W 073°35'3 5.1
2017-Oct-09 04:00N 45°24' W 073°39'3 6.0
2017-Oct-09 03:30N 45°24' W 073°43'510.5
2017-Oct-09 03:00N 45°22' W 073°50'5 9.4
2017-Oct-09 02:30N 45°19' W 073°55'0 0.3
2017-Oct-09 02:01N 45°19' W 073°55'0 0.0
2017-Oct-09 01:30N 45°19' W 073°55'0 0.0
2017-Oct-09 01:00N 45°19' W 073°55'0 0.0
2017-Oct-09 00:31N 45°19' W 073°55'0 0.0
2017-Oct-09 00:00N 45°19' W 073°55'1 1.6
2017-Oct-08 23:30N 45°18' W 073°56'0 0.6
2017-Oct-08 23:00N 45°18' W 073°56'4 7.5
2017-Oct-08 22:30N 45°15' W 073°59'610.6
2017-Oct-08 21:57N 45°14' W 074°07'810.9
2017-Oct-08 21:15N 45°12' W 074°18'  
2017-Oct-04 01:39N 46°57' W 091°36'210.5
2017-Oct-04 01:28N 46°56' W 091°39'510.7
2017-Oct-04 01:00N 46°54' W 091°45'510.9
2017-Oct-04 00:30N 46°51' W 091°53'510.8
2017-Oct-04 00:01N 46°49' W 091°60'5 9.4
2017-Oct-03 23:31N 46°47' W 092°06'2 3.4
2017-Oct-03 22:59N 46°45' W 092°06'0 0.6
2017-Oct-03 22:17N 46°44' W 092°06'0 0.0
2017-Oct-03 21:47N 46°44' W 092°06'0 0.0
2017-Oct-03 21:14N 46°44' W 092°06'0 0.0
2017-Oct-03 20:59N 46°44' W 092°06'0 0.0
2017-Oct-03 20:20N 46°44' W 092°06'0 0.0
2017-Oct-03 19:50N 46°44' W 092°06'0 0.0
2017-Oct-03 18:47N 46°44' W 092°06'0 0.0
2017-Oct-03 18:20N 46°44' W 092°06'0 0.0
2017-Oct-03 17:50N 46°44' W 092°06'0 0.0
2017-Oct-03 17:20N 46°44' W 092°06'0 0.0
2017-Oct-03 16:53N 46°44' W 092°06'0 0.0
2017-Oct-03 16:20N 46°44' W 092°06'0 0.0
2017-Oct-03 15:53N 46°44' W 092°06'0 0.0
2017-Oct-03 15:20N 46°44' W 092°06'0 0.0
2017-Oct-03 14:50N 46°44' W 092°06'0 0.0
2017-Oct-03 13:53N 46°44' W 092°06'0 0.0
2017-Oct-03 12:11N 46°44' W 092°06'0 0.0
2017-Oct-03 11:59N 46°44' W 092°06'0 0.0
2017-Oct-03 11:14N 46°44' W 092°06'0 0.0
2017-Oct-03 10:59N 46°44' W 092°06'0 0.0
2017-Oct-03 09:41N 46°44' W 092°06'0 0.0
2017-Oct-03 09:17N 46°44' W 092°06'0 0.0
2017-Oct-03 08:59N 46°44' W 092°06'0 0.0
2017-Oct-03 07:32N 46°44' W 092°06'0 0.0
2017-Oct-03 06:35N 46°44' W 092°06'0 0.0
2017-Oct-03 06:29N 46°44' W 092°06'0 0.0
2017-Oct-03 05:47N 46°44' W 092°06'0 0.0
2017-Oct-03 05:29N 46°44' W 092°06'0 0.0
2017-Oct-03 04:47N 46°44' W 092°06'0 0.0
2017-Oct-03 04:05N 46°44' W 092°06'0 0.0
2017-Oct-03 03:32N 46°44' W 092°06'0 0.0
2017-Oct-03 03:23N 46°44' W 092°06'0 0.0
2017-Oct-03 02:53N 46°44' W 092°06'0 0.0
2017-Oct-03 01:23N 46°44' W 092°06'0 0.0
2017-Oct-03 00:38N 46°44' W 092°06'0 0.0
2017-Oct-03 00:26N 46°44' W 092°06'0 0.0
2017-Oct-02 22:56N 46°44' W 092°06'0 0.0
2017-Oct-02 22:23N 46°44' W 092°06'0 0.0
2017-Oct-02 21:59N 46°44' W 092°06'0 0.0
2017-Oct-02 21:29N 46°44' W 092°06'0 0.0
2017-Oct-02 20:59N 46°44' W 092°06'0 0.0
2017-Oct-02 20:26N 46°44' W 092°06'0 0.0
2017-Oct-02 19:59N 46°44' W 092°06'0 0.0
2017-Oct-02 19:26N 46°44' W 092°06'0 0.0
2017-Oct-02 18:56N 46°44' W 092°06'0 0.0
2017-Oct-02 18:14N 46°44' W 092°06'0 0.0
2017-Oct-02 17:59N 46°44' W 092°06'0 0.0
2017-Oct-02 17:29N 46°44' W 092°06'0 0.0
2017-Oct-02 16:59N 46°44' W 092°06'0 0.0
2017-Oct-02 16:29N 46°44' W 092°06'0 0.0
2017-Oct-02 15:47N 46°44' W 092°06'0 0.0
2017-Oct-02 15:29N 46°44' W 092°06'0 0.0
2017-Oct-02 14:50N 46°44' W 092°06'0 0.0
2017-Oct-02 14:20N 46°44' W 092°06'0 0.0
2017-Oct-02 13:35N 46°44' W 092°06'0 0.0
2017-Oct-02 12:20N 46°44' W 092°06'0 0.0
2017-Oct-02 11:35N 46°44' W 092°06'0 0.0
2017-Oct-02 11:23N 46°44' W 092°06'0 0.0
2017-Oct-02 10:56N 46°44' W 092°06'0 0.0
2017-Oct-02 10:23N 46°44' W 092°06'0 0.0
2017-Oct-02 09:56N 46°44' W 092°06'0 0.0
2017-Oct-02 08:56N 46°44' W 092°06'0 0.0
2017-Oct-02 08:14N 46°44' W 092°06'0 0.0
2017-Oct-02 07:56N 46°44' W 092°06'0 0.0
2017-Oct-02 07:23N 46°44' W 092°06'0 0.0
2017-Oct-02 06:59N 46°44' W 092°06'0 0.0
2017-Oct-02 06:29N 46°44' W 092°06'0 0.0
2017-Oct-02 05:59N 46°44' W 092°06'0 0.0
2017-Oct-02 05:26N 46°44' W 092°06'0 0.0
2017-Oct-02 04:56N 46°44' W 092°06'0 0.0
2017-Oct-02 04:26N 46°44' W 092°06'0 0.0
2017-Oct-02 03:47N 46°44' W 092°06'0 0.0
2017-Oct-02 03:09N 46°44' W 092°06'0 0.0
2017-Oct-02 03:01N 46°44' W 092°06'0 0.7
2017-Oct-02 02:31N 46°45' W 092°06'1 2.5
2017-Oct-02 02:01N 46°46' W 092°06'4 7.5
2017-Oct-02 01:30N 46°48' W 092°01'612.9
2017-Oct-02 01:00N 46°50' W 091°52'712.9
2017-Oct-02 00:30N 46°53' W 091°43'612.6
2017-Oct-02 00:00N 46°55' W 091°35'  
Track history (hours):
 
Tides and Currents Weather Stations Pressure Air Temp Water Temp Dewpoint Dewpoint Depression Visibility Wind Speed Wind Dir Waves Ship Positions

Fivelborg

Last reported at 2017-Oct-09 08:21 UTC. Time now 2017-Oct-19 18:20 UTC.
Position N 45°34' W 073°31'.
Warning: this ship's position is 10 days out of date.

Length 154 m; draft 8 m.

Type: Cargo ship. MMSI: 245466000.

Date/timePositionNaut miles runAvg speedWind from/ knotsBaromVisibWave heightAir tempDewpointWater temp
2017-Oct-09 08:21N 45°34' W 073°31'3 6.4
2017-Oct-09 07:57N 45°32' W 073°32'2 1.8
2017-Oct-09 06:41N 45°30' W 073°31'1 2.7
2017-Oct-09 06:27N 45°29' W 073°31'3 5.8
2017-Oct-09 06:01N 45°26' W 073°30'3 5.8
2017-Oct-09 05:29N 45°24' W 073°33'0 1.0
2017-Oct-09 05:00N 45°24' W 073°34'1 2.0
2017-Oct-09 04:30N 45°24' W 073°35'3 5.1
2017-Oct-09 04:00N 45°24' W 073°39'3 6.0
2017-Oct-09 03:30N 45°24' W 073°43'510.5
2017-Oct-09 03:00N 45°22' W 073°50'5 9.4
2017-Oct-09 02:30N 45°19' W 073°55'0 0.3
2017-Oct-09 02:01N 45°19' W 073°55'0 0.0
2017-Oct-09 01:30N 45°19' W 073°55'0 0.0
2017-Oct-09 01:00N 45°19' W 073°55'0 0.0
2017-Oct-09 00:31N 45°19' W 073°55'0 0.0
2017-Oct-09 00:00N 45°19' W 073°55'1 1.6
2017-Oct-08 23:30N 45°18' W 073°56'0 0.6
2017-Oct-08 23:00N 45°18' W 073°56'4 7.5
2017-Oct-08 22:30N 45°15' W 073°59'610.6
2017-Oct-08 21:57N 45°14' W 074°07'810.9
2017-Oct-08 21:15N 45°12' W 074°18'  
2017-Oct-04 01:39N 46°57' W 091°36'210.5
2017-Oct-04 01:28N 46°56' W 091°39'510.7
2017-Oct-04 01:00N 46°54' W 091°45'510.9
2017-Oct-04 00:30N 46°51' W 091°53'510.8
2017-Oct-04 00:01N 46°49' W 091°60'5 9.4
2017-Oct-03 23:31N 46°47' W 092°06'2 3.4
2017-Oct-03 22:59N 46°45' W 092°06'0 0.6
2017-Oct-03 22:17N 46°44' W 092°06'0 0.0
2017-Oct-03 21:47N 46°44' W 092°06'0 0.0
2017-Oct-03 21:14N 46°44' W 092°06'0 0.0
2017-Oct-03 20:59N 46°44' W 092°06'0 0.0
2017-Oct-03 20:20N 46°44' W 092°06'0 0.0
2017-Oct-03 19:50N 46°44' W 092°06'0 0.0
2017-Oct-03 18:47N 46°44' W 092°06'0 0.0
2017-Oct-03 18:20N 46°44' W 092°06'0 0.0
2017-Oct-03 17:50N 46°44' W 092°06'0 0.0
2017-Oct-03 17:20N 46°44' W 092°06'0 0.0
2017-Oct-03 16:53N 46°44' W 092°06'0 0.0
2017-Oct-03 16:20N 46°44' W 092°06'0 0.0
2017-Oct-03 15:53N 46°44' W 092°06'0 0.0
2017-Oct-03 15:20N 46°44' W 092°06'0 0.0
2017-Oct-03 14:50N 46°44' W 092°06'0 0.0
2017-Oct-03 13:53N 46°44' W 092°06'0 0.0
2017-Oct-03 12:11N 46°44' W 092°06'0 0.0
2017-Oct-03 11:59N 46°44' W 092°06'0 0.0
2017-Oct-03 11:14N 46°44' W 092°06'0 0.0
2017-Oct-03 10:59N 46°44' W 092°06'0 0.0
2017-Oct-03 09:41N 46°44' W 092°06'0 0.0
2017-Oct-03 09:17N 46°44' W 092°06'0 0.0
2017-Oct-03 08:59N 46°44' W 092°06'0 0.0
2017-Oct-03 07:32N 46°44' W 092°06'0 0.0
2017-Oct-03 06:35N 46°44' W 092°06'0 0.0
2017-Oct-03 06:29N 46°44' W 092°06'0 0.0
2017-Oct-03 05:47N 46°44' W 092°06'0 0.0
2017-Oct-03 05:29N 46°44' W 092°06'0 0.0
2017-Oct-03 04:47N 46°44' W 092°06'0 0.0
2017-Oct-03 04:05N 46°44' W 092°06'0 0.0
2017-Oct-03 03:32N 46°44' W 092°06'0 0.0
2017-Oct-03 03:23N 46°44' W 092°06'0 0.0
2017-Oct-03 02:53N 46°44' W 092°06'0 0.0
2017-Oct-03 01:23N 46°44' W 092°06'0 0.0
2017-Oct-03 00:38N 46°44' W 092°06'0 0.0
2017-Oct-03 00:26N 46°44' W 092°06'0 0.0
2017-Oct-02 22:56N 46°44' W 092°06'0 0.0
2017-Oct-02 22:23N 46°44' W 092°06'0 0.0
2017-Oct-02 21:59N 46°44' W 092°06'0 0.0
2017-Oct-02 21:29N 46°44' W 092°06'0 0.0
2017-Oct-02 20:59N 46°44' W 092°06'0 0.0
2017-Oct-02 20:26N 46°44' W 092°06'0 0.0
2017-Oct-02 19:59N 46°44' W 092°06'0 0.0
2017-Oct-02 19:26N 46°44' W 092°06'0 0.0
2017-Oct-02 18:56N 46°44' W 092°06'0 0.0
2017-Oct-02 18:14N 46°44' W 092°06'0 0.0
2017-Oct-02 17:59N 46°44' W 092°06'0 0.0
2017-Oct-02 17:29N 46°44' W 092°06'0 0.0
2017-Oct-02 16:59N 46°44' W 092°06'0 0.0
2017-Oct-02 16:29N 46°44' W 092°06'0 0.0
2017-Oct-02 15:47N 46°44' W 092°06'0 0.0
2017-Oct-02 15:29N 46°44' W 092°06'0 0.0
2017-Oct-02 14:50N 46°44' W 092°06'0 0.0
2017-Oct-02 14:20N 46°44' W 092°06'0 0.0
2017-Oct-02 13:35N 46°44' W 092°06'0 0.0
2017-Oct-02 12:20N 46°44' W 092°06'0 0.0
2017-Oct-02 11:35N 46°44' W 092°06'0 0.0
2017-Oct-02 11:23N 46°44' W 092°06'0 0.0
2017-Oct-02 10:56N 46°44' W 092°06'0 0.0
2017-Oct-02 10:23N 46°44' W 092°06'0 0.0
2017-Oct-02 09:56N 46°44' W 092°06'0 0.0
2017-Oct-02 08:56N 46°44' W 092°06'0 0.0
2017-Oct-02 08:14N 46°44' W 092°06'0 0.0
2017-Oct-02 07:56N 46°44' W 092°06'0 0.0
2017-Oct-02 07:23N 46°44' W 092°06'0 0.0
2017-Oct-02 06:59N 46°44' W 092°06'0 0.0
2017-Oct-02 06:29N 46°44' W 092°06'0 0.0
2017-Oct-02 05:59N 46°44' W 092°06'0 0.0
2017-Oct-02 05:26N 46°44' W 092°06'0 0.0
2017-Oct-02 04:56N 46°44' W 092°06'0 0.0
2017-Oct-02 04:26N 46°44' W 092°06'0 0.0
2017-Oct-02 03:47N 46°44' W 092°06'0 0.0
2017-Oct-02 03:09N 46°44' W 092°06'0 0.0
2017-Oct-02 03:01N 46°44' W 092°06'0 0.7
2017-Oct-02 02:31N 46°45' W 092°06'1 2.5
2017-Oct-02 02:01N 46°46' W 092°06'4 7.5
2017-Oct-02 01:30N 46°48' W 092°01'612.9
2017-Oct-02 01:00N 46°50' W 091°52'712.9
2017-Oct-02 00:30N 46°53' W 091°43'612.6
2017-Oct-02 00:00N 46°55' W 091°35'  

Dump ship's entire track history